This is the latest recevied weather packets stored in our database for station/object EA4HRG-10. If no packets are shown the sender has not sent any weather packets the latest 10 day(s).
| Time | Temp. | Humidity | Pressure | Rain* | Wind** | Luminosity | Snow |
|---|---|---|---|---|---|---|---|
| 1788189938 | 39.44° C | 13% | 1009.1 hPa | - | - | - | - |
| 1788189038 | 37.78° C | 13% | 1009.7 hPa | - | - | - | - |
| 1788188174 | 39.44° C | 12% | 1009.1 hPa | - | - | - | - |
| 1788188138 | 39.44° C | 12% | 1009.1 hPa | - | - | - | - |
| 1788187238 | 38.89° C | 12% | 1009.6 hPa | - | - | - | - |
| 1788186338 | 38.89° C | 13% | 1009.8 hPa | - | - | - | - |
| 1788185661 | 38.33° C | 14% | 1010 hPa | - | - | - | - |
| 1788185438 | 38.33° C | 14% | 1010 hPa | - | - | - | - |
| 1788184538 | 38.33° C | 14% | 1010 hPa | - | - | - | - |
| 1788183638 | 37.78° C | 14% | 1010.4 hPa | - | - | - | - |
| 1788182738 | 36.11° C | 15% | 1011 hPa | - | - | - | - |
| 1788181838 | 37.78° C | 14% | 1010.6 hPa | - | - | - | - |
| 1788180938 | 38.33° C | 14% | 1010.8 hPa | - | - | - | - |
| 1788180038 | 37.78° C | 15% | 1011 hPa | - | - | - | - |
| 1788179138 | 37.78° C | 15% | 1010.9 hPa | - | - | - | - |
| 1788178238 | 37.22° C | 15% | 1011.4 hPa | - | - | - | - |
| 1788177337 | 35° C | 17% | 1012.1 hPa | - | - | - | - |
| 1788176438 | 36.67° C | 15% | 1011.8 hPa | - | - | - | - |
| 1788175538 | 36.67° C | 17% | 1012.2 hPa | - | - | - | - |
| 1788174637 | 35.56° C | 18% | 1012.5 hPa | - | - | - | - |
| 1788173738 | 36.11° C | 19% | 1012.6 hPa | - | - | - | - |
| 1788172838 | 33.89° C | 21% | 1013.3 hPa | - | - | - | - |
| 1788171938 | 33.89° C | 21% | 1013.5 hPa | - | - | - | - |
| 1788171211 | 31.67° C | 23% | 1014.2 hPa | - | - | - | - |
| 1788171037 | 31.67° C | 23% | 1014.2 hPa | - | - | - | - |
* Rain since midnight (hover to see other rain measurements)
** Current wind speed in m/s (hover to see current wind gust speed)